Time;durP1;ratioP1;P1;durP2;ratioP2;P2;SDS_P1;SDS_P2;PMS_P1;PMS_P2;Temp;Humidity;BMP_temperature;BMP_pressure;BME280_temperature;BME280_humidity;BME280_pressure;Samples;Min_cycle;Max_cycle;Signal;HPM_P1;HPM_P2
2021/12/06 00:01:47;;;;;;;20.70;10.85;;;3.40;99.90;;;;;;4979040;28;20034;-82
2021/12/06 00:04:20;;;;;;;17.23;9.20;;;3.40;99.90;;;;;;4970312;28;20064;-82
2021/12/06 00:06:56;;;;;;;23.23;11.35;;;3.40;99.90;;;;;;4965195;28;20050;-82
2021/12/06 00:09:25;;;;;;;18.70;10.27;;;3.40;99.90;;;;;;4991072;28;20058;-82
2021/12/06 00:11:57;;;;;;;18.45;10.15;;;3.40;99.90;;;;;;4987523;28;20038;-82
2021/12/06 00:14:27;;;;;;;18.33;10.32;;;3.40;99.90;;;;;;4966548;28;20085;-82
2021/12/06 00:16:58;;;;;;;19.52;10.35;;;3.40;99.90;;;;;;4985758;28;20462;-82
2021/12/06 00:19:25;;;;;;;18.77;9.60;;;3.40;99.90;;;;;;4985590;28;20049;-82
2021/12/06 00:21:50;;;;;;;22.80;11.73;;;3.40;99.90;;;;;;4990270;28;20045;-82
2021/12/06 00:24:16;;;;;;;19.85;10.82;;;3.40;99.90;;;;;;4972861;28;20064;-82
2021/12/06 00:26:43;;;;;;;20.40;10.57;;;3.40;99.90;;;;;;4992659;28;20092;-82
2021/12/06 00:29:09;;;;;;;17.67;9.57;;;3.40;99.90;;;;;;4970504;28;20491;-82
2021/12/06 00:31:35;;;;;;;19.23;10.52;;;3.40;99.90;;;;;;4998968;28;20057;-82
2021/12/06 00:34:05;;;;;;;21.08;10.63;;;3.30;99.90;;;;;;4989169;28;20038;-82
2021/12/06 00:36:33;;;;;;;21.50;10.27;;;3.30;99.90;;;;;;4974235;28;20046;-82
2021/12/06 00:39:03;;;;;;;19.98;9.95;;;3.30;99.90;;;;;;4975143;28;20073;-83
2021/12/06 00:41:29;;;;;;;19.80;10.43;;;3.30;99.90;;;;;;4970427;28;20060;-82
2021/12/06 00:43:54;;;;;;;21.52;10.43;;;3.20;99.90;;;;;;4987481;28;20072;-83
2021/12/06 00:46:20;;;;;;;24.30;12.77;;;3.20;99.90;;;;;;4990186;28;20120;-82
2021/12/06 00:48:46;;;;;;;21.08;11.15;;;3.20;99.90;;;;;;4971318;28;20498;-82
2021/12/06 00:51:13;;;;;;;18.42;10.38;;;3.30;99.90;;;;;;4968694;28;20049;-82
2021/12/06 00:53:39;;;;;;;18.50;10.57;;;3.30;99.90;;;;;;4990757;28;20078;-83
2021/12/06 00:56:05;;;;;;;19.23;10.98;;;3.30;99.90;;;;;;4975828;28;20429;-82
2021/12/06 00:58:31;;;;;;;24.40;12.88;;;3.30;99.90;;;;;;4977326;28;20076;-82
2021/12/06 01:00:57;;;;;;;21.45;10.80;;;3.30;99.90;;;;;;4993595;28;20129;-82
2021/12/06 01:03:27;;;;;;;19.23;10.52;;;3.30;99.90;;;;;;4973375;28;20438;-82
2021/12/06 01:05:53;;;;;;;20.58;11.02;;;3.30;99.90;;;;;;4992831;28;20506;-82
2021/12/06 01:08:19;;;;;;;22.25;10.68;;;3.30;99.90;;;;;;4975564;28;20046;-82
2021/12/06 01:10:47;;;;;;;23.02;11.27;;;3.20;99.90;;;;;;4993668;28;20057;-82
2021/12/06 01:13:13;;;;;;;22.95;11.80;;;3.20;99.90;;;;;;4990201;28;20049;-82
2021/12/06 01:15:39;;;;;;;22.08;11.15;;;3.20;99.90;;;;;;4971325;28;20046;-82
2021/12/06 01:18:08;;;;;;;22.17;10.90;;;3.20;99.90;;;;;;4991808;28;20116;-82
2021/12/06 01:20:40;;;;;;;20.23;10.43;;;3.20;99.90;;;;;;4969961;28;20046;-82
2021/12/06 01:23:10;;;;;;;;;;;3.20;99.90;;;;;;4974526;28;20499;-82
2021/12/06 01:28:36;;;;;;;17.48;9.48;;;3.20;99.90;;;;;;4992994;28;20415;-82
2021/12/06 01:33:38;;;;;;;23.13;12.20;;;3.20;99.90;;;;;;4988938;28;20050;-83
2021/12/06 01:41:37;;;;;;;18.45;10.38;;;3.20;99.90;;;;;;4991468;28;20050;-82
2021/12/06 01:44:20;;;;;;;18.10;8.82;;;3.10;99.90;;;;;;4976295;28;20049;-82
2021/12/06 01:46:49;;;;;;;19.25;11.43;;;3.20;99.90;;;;;;4991511;28;20469;-82
2021/12/06 01:49:17;;;;;;;20.02;10.93;;;3.20;99.90;;;;;;4974399;28;20046;-82
2021/12/06 01:51:43;;;;;;;17.63;8.88;;;3.20;99.90;;;;;;4987803;28;20113;-82
2021/12/06 01:54:10;;;;;;;20.25;10.27;;;3.20;99.90;;;;;;4971244;28;20503;-82
2021/12/06 01:56:36;;;;;;;19.33;10.35;;;3.20;99.90;;;;;;4975571;28;20124;-82
2021/12/06 01:59:02;;;;;;;18.63;10.20;;;3.20;99.90;;;;;;4976144;28;20120;-82
2021/12/06 02:01:28;;;;;;;21.98;11.60;;;3.20;99.90;;;;;;4974989;28;20042;-83
2021/12/06 02:03:54;;;;;;;18.27;10.40;;;3.10;99.90;;;;;;5025365;23;20054;-85
2021/12/06 02:06:20;;;;;;;20.15;11.30;;;3.10;99.90;;;;;;4985716;28;20156;-85
2021/12/06 02:08:45;;;;;;;17.27;10.40;;;3.10;99.90;;;;;;4986379;28;20115;-85
2021/12/06 02:11:12;;;;;;;20.63;11.10;;;3.10;99.90;;;;;;5010374;28;20120;-85
2021/12/06 02:13:48;;;;;;;16.25;9.93;;;3.10;99.90;;;;;;5005356;28;20183;-85
2021/12/06 02:16:16;;;;;;;17.88;9.63;;;3.10;99.90;;;;;;5011249;28;20045;-85
2021/12/06 02:21:28;;;;;;;18.02;10.00;;;3.10;99.90;;;;;;5009289;28;20066;-85
2021/12/06 02:23:54;;;;;;;18.38;9.77;;;3.10;99.90;;;;;;4992836;28;20064;-85
2021/12/06 02:26:21;;;;;;;19.30;10.25;;;3.10;99.90;;;;;;5011120;28;20076;-85
2021/12/06 02:28:47;;;;;;;19.60;10.48;;;3.10;99.90;;;;;;5003196;28;20034;-86
2021/12/06 02:31:12;;;;;;;22.25;11.60;;;3.10;99.90;;;;;;5008049;28;20040;-86
2021/12/06 02:33:38;;;;;;;21.75;11.30;;;3.10;99.90;;;;;;5000623;28;20562;-85
2021/12/06 02:36:05;;;;;;;18.83;10.02;;;3.10;99.90;;;;;;5008010;28;20045;-86
2021/12/06 02:38:31;;;;;;;19.27;9.63;;;3.10;99.90;;;;;;4989658;28;20037;-86
2021/12/06 02:40:56;;;;;;;22.50;11.30;;;3.10;99.90;;;;;;4995574;28;20029;-86
2021/12/06 02:43:22;;;;;;;18.90;10.65;;;3.10;99.90;;;;;;4996358;28;20481;-86
2021/12/06 02:45:48;;;;;;;24.30;12.32;;;3.10;99.90;;;;;;5009774;28;20360;-86
2021/12/06 02:48:15;;;;;;;21.65;11.38;;;3.10;99.90;;;;;;5010479;28;20046;-86
2021/12/06 02:50:54;;;;;;;20.80;11.13;;;3.10;99.90;;;;;;4991297;28;20068;-86
2021/12/06 02:53:23;;;;;;;25.85;11.25;;;3.10;99.90;;;;;;5009658;28;20076;-86
2021/12/06 02:55:52;;;;;;;25.48;12.77;;;3.10;99.90;;;;;;4995561;28;20038;-86
2021/12/06 02:58:45;;;;;;;24.70;11.90;;;3.10;99.90;;;;;;4996436;28;20460;-86
2021/12/06 03:01:19;;;;;;;24.73;12.18;;;3.10;99.90;;;;;;5006072;28;20050;-86
2021/12/06 03:03:48;;;;;;;25.50;12.85;;;3.10;99.90;;;;;;5008543;28;20064;-86
2021/12/06 03:06:14;;;;;;;18.75;9.68;;;3.10;99.90;;;;;;4996585;28;20046;-85
2021/12/06 03:08:48;;;;;;;21.95;10.48;;;3.10;99.90;;;;;;4979978;28;20042;-85
2021/12/06 03:11:47;;;;;;;23.23;12.38;;;3.10;99.90;;;;;;4979051;28;20046;-86
2021/12/06 03:14:19;;;;;;;26.52;12.27;;;3.10;99.90;;;;;;4978715;28;20128;-86
2021/12/06 03:16:44;;;;;;;22.20;11.07;;;3.10;99.90;;;;;;4994810;28;20049;-85
2021/12/06 03:19:11;;;;;;;25.05;12.40;;;3.10;99.90;;;;;;4982816;28;20455;-86
2021/12/06 03:21:37;;;;;;;21.63;10.98;;;3.10;99.90;;;;;;4994635;28;20033;-86
2021/12/06 03:24:04;;;;;;;21.15;10.77;;;3.10;99.90;;;;;;4984066;28;20040;-86
2021/12/06 03:26:33;;;;;;;21.20;9.95;;;3.00;99.90;;;;;;4998554;28;20049;-86
2021/12/06 03:29:00;;;;;;;27.48;11.85;;;3.10;99.90;;;;;;4981298;28;20041;-86
2021/12/06 03:31:27;;;;;;;23.17;11.10;;;3.00;99.90;;;;;;4980453;28;20085;-86
2021/12/06 03:33:55;;;;;;;27.55;12.68;;;3.10;99.90;;;;;;4983721;28;20117;-86
2021/12/06 03:36:23;;;;;;;26.60;12.10;;;3.00;99.90;;;;;;4994863;28;20093;-86
2021/12/06 03:38:51;;;;;;;23.55;11.73;;;3.00;99.90;;;;;;4980215;28;20045;-86
2021/12/06 03:41:19;;;;;;;21.08;10.77;;;3.00;99.90;;;;;;4977254;28;20149;-82
2021/12/06 03:43:44;;;;;;;24.15;11.20;;;3.00;99.90;;;;;;4978319;28;20034;-82
2021/12/06 03:46:12;;;;;;;32.03;14.35;;;3.00;99.90;;;;;;4994573;28;20048;-83
2021/12/06 03:48:38;;;;;;;31.77;14.70;;;3.00;99.90;;;;;;4978382;28;20053;-82
2021/12/06 03:51:05;;;;;;;38.42;15.27;;;3.10;99.90;;;;;;4977938;28;20038;-82
2021/12/06 03:53:31;;;;;;;29.63;13.55;;;3.10;99.90;;;;;;4974838;28;20033;-82
2021/12/06 03:55:58;;;;;;;31.23;12.95;;;3.10;99.90;;;;;;4991789;28;20085;-82
2021/12/06 03:58:24;;;;;;;34.13;13.98;;;3.10;99.90;;;;;;4995131;28;20059;-81
2021/12/06 04:00:50;;;;;;;36.17;14.90;;;3.00;99.90;;;;;;4976420;28;20490;-82
2021/12/06 04:03:18;;;;;;;26.65;12.70;;;3.00;99.90;;;;;;4974353;28;20044;-82
2021/12/06 04:05:43;;;;;;;41.63;15.05;;;3.00;99.90;;;;;;4999177;28;20392;-82
2021/12/06 04:08:09;;;;;;;30.15;12.65;;;3.00;99.90;;;;;;4991821;28;20068;-82
2021/12/06 04:10:35;;;;;;;32.15;13.55;;;3.00;99.90;;;;;;4991133;28;20045;-82
2021/12/06 04:13:01;;;;;;;38.75;15.00;;;3.00;99.90;;;;;;4977359;28;20037;-82
2021/12/06 04:15:30;;;;;;;30.25;14.00;;;3.00;99.90;;;;;;4993937;28;20041;-82
2021/12/06 04:17:57;;;;;;;42.45;17.38;;;3.00;99.90;;;;;;4977010;28;20124;-82
2021/12/06 04:20:24;;;;;;;31.15;14.52;;;3.00;99.90;;;;;;4975984;28;20057;-82
2021/12/06 04:22:50;;;;;;;31.50;12.70;;;3.00;99.90;;;;;;4977274;28;20137;-82
2021/12/06 04:25:18;;;;;;;50.75;16.13;;;3.00;99.90;;;;;;4980433;28;20463;-82
2021/12/06 04:27:50;;;;;;;26.00;12.40;;;3.00;99.90;;;;;;4975619;28;20499;-82
2021/12/06 04:30:16;;;;;;;36.92;13.50;;;3.00;99.90;;;;;;4990957;28;20056;-82
2021/12/06 04:32:42;;;;;;;34.17;14.23;;;3.00;99.90;;;;;;4987021;28;20041;-82
2021/12/06 04:35:08;;;;;;;52.03;16.65;;;3.00;99.90;;;;;;4996144;28;20121;-82
2021/12/06 04:37:33;;;;;;;39.17;14.82;;;3.00;99.90;;;;;;4978167;28;20050;-82
2021/12/06 04:39:59;;;;;;;40.85;16.30;;;3.00;99.90;;;;;;4974204;28;20415;-82
2021/12/06 04:42:25;;;;;;;36.50;13.18;;;3.00;99.90;;;;;;4992169;28;20042;-82
2021/12/06 04:44:51;;;;;;;44.42;15.65;;;3.00;99.90;;;;;;4977496;28;20109;-82
2021/12/06 04:47:16;;;;;;;35.60;14.77;;;3.00;99.90;;;;;;4995967;28;20414;-82
2021/12/06 04:49:42;;;;;;;44.70;14.85;;;3.00;99.90;;;;;;4993331;28;20116;-83
2021/12/06 04:52:11;;;;;;;38.33;15.20;;;3.00;99.90;;;;;;4987524;28;20058;-82
2021/12/06 04:54:42;;;;;;;49.20;15.52;;;3.00;99.90;;;;;;4975723;28;20105;-82
2021/12/06 04:57:14;;;;;;;33.00;13.65;;;3.00;99.90;;;;;;4991021;28;20095;-82
2021/12/06 04:59:44;;;;;;;53.08;14.68;;;3.00;99.90;;;;;;4972467;28;20080;-82
2021/12/06 05:02:14;;;;;;;46.38;14.30;;;3.00;99.90;;;;;;4992321;28;20125;-82
2021/12/06 05:04:47;;;;;;;49.67;12.85;;;3.00;99.90;;;;;;4977491;28;20049;-82
2021/12/06 05:07:26;;;;;;;58.22;15.93;;;3.00;99.90;;;;;;4991326;28;20054;-82
2021/12/06 05:09:52;;;;;;;47.53;14.00;;;3.00;99.90;;;;;;4997138;28;20144;-82
2021/12/06 05:12:21;;;;;;;50.22;12.88;;;3.00;99.90;;;;;;4977224;28;20084;-82
2021/12/06 05:14:47;;;;;;;44.47;15.43;;;3.00;99.90;;;;;;4975300;28;20085;-82
2021/12/06 05:17:13;;;;;;;46.20;14.43;;;3.00;99.90;;;;;;4990746;28;20073;-82
2021/12/06 05:19:39;;;;;;;86.97;18.40;;;3.00;99.90;;;;;;4978154;28;20068;-82
2021/12/06 05:22:06;;;;;;;68.40;15.60;;;3.00;99.90;;;;;;4990550;28;20112;-82
2021/12/06 05:24:33;;;;;;;61.55;16.85;;;3.00;99.90;;;;;;4992467;28;20525;-82
2021/12/06 05:26:59;;;;;;;72.78;16.75;;;3.00;99.90;;;;;;4975690;28;20086;-82
2021/12/06 05:29:27;;;;;;;68.20;18.20;;;3.00;99.90;;;;;;4977662;28;20464;-82
2021/12/06 05:31:56;;;;;;;60.45;15.60;;;3.00;99.90;;;;;;4976528;28;20045;-82
2021/12/06 05:34:30;;;;;;;54.20;15.02;;;3.00;99.90;;;;;;4987646;28;20046;-82
2021/12/06 05:36:57;;;;;;;68.65;16.67;;;3.00;99.90;;;;;;4992720;28;20038;-82
2021/12/06 05:39:23;;;;;;;54.70;15.73;;;3.00;99.90;;;;;;4992326;28;20060;-82
2021/12/06 05:41:49;;;;;;;51.90;15.05;;;3.00;99.90;;;;;;4974380;28;20076;-82
2021/12/06 05:44:15;;;;;;;60.20;16.50;;;3.00;99.90;;;;;;4978359;28;20053;-82
2021/12/06 05:46:41;;;;;;;83.78;19.45;;;3.00;99.90;;;;;;4982255;28;20085;-82
2021/12/06 05:49:07;;;;;;;60.13;16.90;;;3.00;99.90;;;;;;4982040;28;20037;-82
2021/12/06 05:51:32;;;;;;;56.35;14.45;;;3.00;99.90;;;;;;4980012;28;20037;-82
2021/12/06 05:53:58;;;;;;;57.38;16.02;;;3.00;99.90;;;;;;4981568;28;20371;-82
2021/12/06 05:56:23;;;;;;;60.67;16.15;;;3.00;99.90;;;;;;4977713;28;20037;-82
2021/12/06 05:58:49;;;;;;;61.95;17.35;;;3.00;99.90;;;;;;4995714;28;20143;-82
2021/12/06 06:01:15;;;;;;;60.42;17.33;;;3.00;99.90;;;;;;4977712;28;20029;-82
2021/12/06 06:03:41;;;;;;;68.63;16.55;;;3.00;99.90;;;;;;4998534;28;20081;-82
2021/12/06 06:06:07;;;;;;;90.13;20.13;;;3.10;99.90;;;;;;4983509;28;20061;-82
2021/12/06 06:08:34;;;;;;;63.47;17.83;;;3.00;99.90;;;;;;4982635;28;20053;-82
2021/12/06 06:11:00;;;;;;;51.17;16.85;;;3.00;99.90;;;;;;4987315;28;20037;-81
2021/12/06 06:13:25;;;;;;;46.30;15.32;;;3.10;99.90;;;;;;4977433;28;20190;-82
2021/12/06 06:15:51;;;;;;;49.58;14.63;;;3.10;99.90;;;;;;4980226;28;20046;-82
2021/12/06 06:18:18;;;;;;;63.95;17.30;;;3.00;99.90;;;;;;4978029;28;20276;-80
2021/12/06 06:20:48;;;;;;;59.05;16.17;;;3.00;99.90;;;;;;4976590;28;20058;-81
2021/12/06 06:23:13;;;;;;;55.80;18.30;;;3.00;99.90;;;;;;4972444;28;20052;-82
2021/12/06 06:25:39;;;;;;;52.67;17.98;;;3.10;99.90;;;;;;4992216;28;20050;-82
2021/12/06 06:28:06;;;;;;;53.78;16.45;;;3.10;99.90;;;;;;4979049;28;20046;-81
2021/12/06 06:30:33;;;;;;;56.78;16.65;;;3.10;99.90;;;;;;4993623;28;20141;-82
2021/12/06 06:32:59;;;;;;;47.67;14.50;;;3.00;99.90;;;;;;4987491;28;20038;-82
2021/12/06 06:35:25;;;;;;;50.72;17.08;;;3.10;99.90;;;;;;4990550;28;20030;-86
2021/12/06 06:37:52;;;;;;;44.30;15.70;;;3.00;99.90;;;;;;4974405;28;20046;-85
2021/12/06 06:40:17;;;;;;;52.70;17.80;;;3.10;99.90;;;;;;4978213;28;20644;-85
2021/12/06 06:42:45;;;;;;;49.28;17.80;;;3.10;99.90;;;;;;4994339;28;20042;-85
2021/12/06 06:45:13;;;;;;;54.70;17.33;;;3.10;99.90;;;;;;4981508;28;20041;-85
2021/12/06 06:47:39;;;;;;;49.70;17.42;;;3.10;99.90;;;;;;4978413;28;20114;-85
2021/12/06 06:50:05;;;;;;;52.03;18.67;;;3.10;99.90;;;;;;4979758;28;20042;-85
2021/12/06 06:52:31;;;;;;;48.45;18.10;;;3.10;99.90;;;;;;4980158;28;20036;-85
2021/12/06 06:54:59;;;;;;;48.40;16.88;;;3.10;99.90;;;;;;4978042;28;20044;-87
2021/12/06 06:57:25;;;;;;;50.75;17.48;;;3.10;99.90;;;;;;4994056;28;20085;-87
2021/12/06 06:59:50;;;;;;;49.67;17.25;;;3.10;99.90;;;;;;4978030;28;20065;-87
2021/12/06 07:02:16;;;;;;;45.92;16.48;;;3.10;99.90;;;;;;4979055;28;20061;-87
2021/12/06 07:04:42;;;;;;;52.38;19.25;;;3.10;99.90;;;;;;4979779;28;20380;-87
2021/12/06 07:07:08;;;;;;;47.38;16.98;;;3.10;99.90;;;;;;4982647;28;20407;-87
2021/12/06 07:09:33;;;;;;;57.13;18.50;;;3.10;99.90;;;;;;4980461;28;20045;-87
2021/12/06 07:12:00;;;;;;;52.83;17.05;;;3.10;99.90;;;;;;4985225;28;20034;-87
2021/12/06 07:14:25;;;;;;;49.10;18.20;;;3.10;99.90;;;;;;4978484;28;20034;-87
2021/12/06 07:16:52;;;;;;;53.58;17.23;;;3.10;99.90;;;;;;4997102;28;20034;-87
2021/12/06 07:19:19;;;;;;;45.70;16.33;;;3.10;99.90;;;;;;4988000;28;20068;-87
2021/12/06 07:21:44;;;;;;;41.00;15.93;;;3.00;99.90;;;;;;4984416;28;20581;-87
2021/12/06 07:24:11;;;;;;;45.67;17.80;;;3.00;99.90;;;;;;4996923;28;20077;-87
2021/12/06 07:26:36;;;;;;;46.28;17.42;;;3.00;99.90;;;;;;4981553;28;20376;-87
2021/12/06 07:29:03;;;;;;;47.90;17.38;;;3.00;99.90;;;;;;4979830;28;20049;-87
2021/12/06 07:31:29;;;;;;;46.72;16.65;;;2.90;99.90;;;;;;4979073;28;20108;-87
2021/12/06 07:33:54;;;;;;;51.47;18.65;;;2.90;99.90;;;;;;4975830;28;20502;-87
2021/12/06 07:36:22;;;;;;;44.65;17.20;;;2.90;99.90;;;;;;4981843;28;20518;-87
2021/12/06 07:38:50;;;;;;;48.78;18.38;;;2.80;99.90;;;;;;4980177;28;20490;-87
2021/12/06 07:41:19;;;;;;;52.50;18.40;;;2.90;99.90;;;;;;4974328;28;20049;-87
2021/12/06 07:43:46;;;;;;;52.08;17.85;;;2.80;99.90;;;;;;4994653;28;20034;-87
2021/12/06 07:46:12;;;;;;;54.03;18.85;;;2.80;99.90;;;;;;4981853;28;20057;-87
2021/12/06 07:48:39;;;;;;;47.30;17.55;;;2.80;99.90;;;;;;4996769;28;20454;-87
2021/12/06 07:51:05;;;;;;;43.90;16.48;;;2.80;99.90;;;;;;4979382;28;20038;-87
2021/12/06 07:53:34;;;;;;;51.80;18.00;;;2.80;99.90;;;;;;4994009;28;20034;-87
2021/12/06 07:56:00;;;;;;;44.10;17.15;;;2.80;99.90;;;;;;4975915;28;20038;-87
2021/12/06 07:58:26;;;;;;;50.55;17.90;;;2.80;99.90;;;;;;4996181;28;20045;-87
2021/12/06 08:00:52;;;;;;;47.85;16.92;;;2.80;99.90;;;;;;4996158;28;20124;-86
2021/12/06 08:03:22;;;;;;;38.10;15.70;;;2.80;99.90;;;;;;4977953;28;20046;-87
2021/12/06 08:05:49;;;;;;;49.10;18.13;;;2.80;99.90;;;;;;4978499;28;20077;-87
2021/12/06 08:08:23;;;;;;;44.65;16.23;;;2.80;99.90;;;;;;4978284;28;20041;-87
2021/12/06 08:10:54;;;;;;;40.97;16.73;;;2.80;99.90;;;;;;4994831;28;20034;-87
2021/12/06 08:13:24;;;;;;;41.60;16.23;;;2.80;99.90;;;;;;4971022;28;20101;-87
2021/12/06 08:15:52;;;;;;;43.78;16.13;;;2.80;99.90;;;;;;4976810;28;20030;-87
2021/12/06 08:18:19;;;;;;;34.67;13.90;;;2.80;99.90;;;;;;4988861;28;20038;-87
2021/12/06 08:20:44;;;;;;;39.30;15.18;;;2.80;99.90;;;;;;4976302;28;20045;-87
2021/12/06 08:23:10;;;;;;;39.53;15.65;;;2.80;99.90;;;;;;4978300;28;20038;-87
2021/12/06 08:25:37;;;;;;;34.67;13.27;;;2.80;99.90;;;;;;4977772;28;20084;-87
2021/12/06 08:28:03;;;;;;;40.70;15.23;;;2.70;99.90;;;;;;4980472;28;20151;-87
2021/12/06 08:30:30;;;;;;;36.20;15.65;;;2.70;99.90;;;;;;4996105;28;20080;-87
2021/12/06 08:32:59;;;;;;;43.85;14.25;;;2.70;99.90;;;;;;4976675;28;20426;-87
2021/12/06 08:35:26;;;;;;;39.92;15.27;;;2.60;99.90;;;;;;5004366;28;20061;-86
2021/12/06 08:37:54;;;;;;;39.15;15.10;;;2.60;99.90;;;;;;4976021;28;20499;-86
2021/12/06 08:40:20;;;;;;;37.88;14.77;;;2.50;99.90;;;;;;4975458;28;20181;-86
2021/12/06 08:42:46;;;;;;;38.05;14.40;;;2.50;99.90;;;;;;4983386;28;20038;-86
2021/12/06 08:45:12;;;;;;;37.83;14.13;;;2.50;99.90;;;;;;4976513;28;20049;-86
2021/12/06 08:47:40;;;;;;;39.83;15.43;;;2.40;99.90;;;;;;4987371;28;21795;-86
2021/12/06 08:50:09;;;;;;;36.33;13.65;;;2.40;99.90;;;;;;4976363;28;20030;-86
2021/12/06 08:52:36;;;;;;;38.15;14.27;;;2.40;99.90;;;;;;4983990;28;20066;-86
2021/12/06 08:55:04;;;;;;;33.53;12.98;;;2.40;99.90;;;;;;4972669;28;20042;-86
2021/12/06 08:57:29;;;;;;;42.75;15.13;;;2.40;99.90;;;;;;4990578;28;20099;-85
2021/12/06 08:59:55;;;;;;;39.83;14.85;;;2.40;99.90;;;;;;4986902;28;20038;-86
2021/12/06 09:02:21;;;;;;;34.55;13.80;;;2.40;99.90;;;;;;4989349;28;20036;-86
2021/12/06 09:04:48;;;;;;;31.95;12.80;;;2.40;99.90;;;;;;4975125;28;20112;-86
2021/12/06 09:07:14;;;;;;;35.53;14.98;;;2.40;99.90;;;;;;4987829;28;20100;-86
2021/12/06 09:09:47;;;;;;;33.58;13.52;;;2.50;99.90;;;;;;4976530;28;20133;-86
2021/12/06 09:12:19;;;;;;;37.95;13.88;;;2.50;99.90;;;;;;4972758;28;20042;-86
2021/12/06 09:14:45;;;;;;;40.30;14.38;;;2.50;99.90;;;;;;4993483;28;20046;-86
2021/12/06 09:17:12;;;;;;;42.92;14.05;;;2.50;99.90;;;;;;4998297;28;20169;-86
2021/12/06 09:19:37;;;;;;;36.35;14.45;;;2.60;99.90;;;;;;4981221;28;20539;-86
2021/12/06 09:22:04;;;;;;;35.97;14.10;;;2.60;99.90;;;;;;4980747;28;20156;-86
2021/12/06 09:24:30;;;;;;;32.25;12.50;;;2.60;99.90;;;;;;4992578;28;20133;-86
2021/12/06 09:26:55;;;;;;;40.45;12.68;;;2.60;99.90;;;;;;4979428;28;20092;-86
2021/12/06 09:29:24;;;;;;;39.83;13.52;;;2.60;99.90;;;;;;4985743;28;20038;-86
2021/12/06 09:31:51;;;;;;;42.22;14.02;;;2.60;99.90;;;;;;4996645;28;20049;-86
2021/12/06 09:34:17;;;;;;;32.65;12.85;;;2.60;99.90;;;;;;4979906;28;20046;-86
2021/12/06 09:36:43;;;;;;;39.40;14.10;;;2.60;99.90;;;;;;4982600;28;20038;-86
2021/12/06 09:39:09;;;;;;;45.05;14.18;;;2.60;99.90;;;;;;4996372;28;20042;-86
2021/12/06 09:41:35;;;;;;;29.52;11.40;;;2.50;99.90;;;;;;4980526;28;20042;-86
2021/12/06 09:44:04;;;;;;;40.80;14.13;;;2.60;99.90;;;;;;4979592;28;20041;-86
2021/12/06 09:46:35;;;;;;;32.25;13.45;;;2.50;99.90;;;;;;4999684;28;20061;-85
2021/12/06 09:49:08;;;;;;;36.08;12.80;;;2.50;99.90;;;;;;4976765;28;20034;-86
2021/12/06 09:51:33;;;;;;;;;;;2.50;99.90;;;;;;4976173;28;20064;-86
2021/12/06 09:53:59;;;;;;;45.50;15.90;;;2.50;99.90;;;;;;4981650;28;19921;-86
2021/12/06 09:56:35;;;;;;;51.22;15.60;;;2.50;99.90;;;;;;4978499;28;20033;-86
2021/12/06 09:59:05;;;;;;;47.47;14.60;;;2.60;99.90;;;;;;4980600;28;20391;-86
2021/12/06 10:01:39;;;;;;;43.88;14.77;;;2.60;99.90;;;;;;4990338;28;20050;-87
2021/12/06 10:04:08;;;;;;;46.03;15.45;;;2.60;99.90;;;;;;4993997;28;20049;-87
2021/12/06 10:06:34;;;;;;;41.78;16.10;;;2.60;99.90;;;;;;4980673;28;20517;-87
2021/12/06 10:09:01;;;;;;;44.47;14.52;;;2.60;99.90;;;;;;4993471;28;20042;-87
2021/12/06 10:11:27;;;;;;;35.95;13.30;;;2.60;99.90;;;;;;4993778;28;20052;-88
2021/12/06 10:13:55;;;;;;;37.83;13.10;;;2.70;99.90;;;;;;4982080;28;20086;-87
2021/12/06 10:16:21;;;;;;;42.90;14.63;;;2.70;99.90;;;;;;4981299;28;20057;-88
2021/12/06 10:18:48;;;;;;;46.25;14.38;;;2.70;99.90;;;;;;4980798;28;20067;-87
2021/12/06 10:21:14;;;;;;;44.55;14.68;;;2.80;99.90;;;;;;4979520;28;20057;-87
2021/12/06 10:23:42;;;;;;;39.83;13.77;;;2.80;99.90;;;;;;4979804;28;20104;-87
2021/12/06 10:26:13;;;;;;;42.45;14.35;;;2.80;99.90;;;;;;4979649;28;20038;-87
2021/12/06 10:28:42;;;;;;;38.00;14.18;;;2.70;99.90;;;;;;4984436;28;20030;-87
2021/12/06 10:31:09;;;;;;;42.38;14.63;;;2.80;99.90;;;;;;4995885;28;20117;-87
2021/12/06 10:33:38;;;;;;;36.72;13.27;;;2.70;99.90;;;;;;4994473;28;20067;-87
2021/12/06 10:36:10;;;;;;;36.90;13.85;;;2.70;99.90;;;;;;4981497;28;20038;-87
2021/12/06 10:38:40;;;;;;;43.60;14.57;;;2.80;99.90;;;;;;4979247;28;20041;-87
2021/12/06 10:41:12;;;;;;;42.53;14.15;;;2.80;99.90;;;;;;4979063;28;20042;-87
2021/12/06 10:43:39;;;;;;;;;;;2.80;99.90;;;;;;4989349;28;20042;-87
2021/12/06 10:46:07;;;;;;;37.13;13.68;;;2.80;99.90;;;;;;4984561;28;20026;-87
2021/12/06 10:48:36;;;;;;;32.70;12.88;;;2.80;99.90;;;;;;4996449;28;20504;-87
2021/12/06 10:51:03;;;;;;;36.20;12.50;;;2.80;99.90;;;;;;4979891;28;20048;-87
2021/12/06 10:53:35;;;;;;;41.70;13.50;;;2.90;99.90;;;;;;4985333;28;20379;-87
2021/12/06 10:56:01;;;;;;;39.17;14.23;;;2.90;99.90;;;;;;4980098;28;20472;-87
2021/12/06 10:58:30;;;;;;;37.28;14.13;;;2.80;99.90;;;;;;4981224;28;20042;-87
2021/12/06 11:01:06;;;;;;;40.80;14.73;;;2.80;99.90;;;;;;4998651;28;20050;-87
2021/12/06 11:03:36;;;;;;;47.92;15.80;;;2.80;99.90;;;;;;4975557;28;20082;-87
2021/12/06 11:06:09;;;;;;;44.72;14.95;;;2.80;99.90;;;;;;4995277;28;20107;-87
2021/12/06 11:08:37;;;;;;;41.85;14.07;;;2.80;99.90;;;;;;4990835;28;20050;-87
2021/12/06 11:11:13;;;;;;;46.03;14.57;;;2.90;99.90;;;;;;4977145;28;20040;-87
2021/12/06 11:13:46;;;;;;;48.30;17.23;;;2.80;99.90;;;;;;4976618;28;20040;-87
2021/12/06 11:16:21;;;;;;;46.20;16.17;;;2.90;99.90;;;;;;4977519;28;20132;-88
2021/12/06 11:18:52;;;;;;;41.70;16.48;;;2.90;99.90;;;;;;4993082;28;20057;-87
2021/12/06 11:21:25;;;;;;;46.88;17.30;;;2.90;99.90;;;;;;4974290;28;20038;-87
2021/12/06 11:24:16;;;;;;;42.85;17.15;;;3.00;99.90;;;;;;4989152;28;20056;-87
2021/12/06 11:27:01;;;;;;;48.25;17.50;;;3.00;99.90;;;;;;4971417;28;20067;-87
2021/12/06 11:29:32;;;;;;;48.00;16.92;;;3.00;99.90;;;;;;4992744;28;20068;-87
2021/12/06 11:32:03;;;;;;;44.00;17.55;;;3.00;99.90;;;;;;4975746;28;20133;-87
2021/12/06 11:34:45;;;;;;;43.97;16.42;;;3.00;99.90;;;;;;5000645;28;20161;-87
2021/12/06 11:37:14;;;;;;;46.58;16.10;;;3.00;99.90;;;;;;4977606;28;20037;-87
2021/12/06 11:39:40;;;;;;;45.00;17.27;;;3.00;99.90;;;;;;4982376;28;20037;-87
2021/12/06 11:42:06;;;;;;;46.05;17.75;;;3.00;99.90;;;;;;4987745;28;20085;-87
2021/12/06 11:44:34;;;;;;;46.85;19.02;;;3.00;99.90;;;;;;4993999;28;20100;-87
2021/12/06 11:47:18;;;;;;;48.70;19.38;;;3.00;99.90;;;;;;4993648;28;20033;-87
2021/12/06 11:49:51;;;;;;;46.53;18.95;;;3.00;99.90;;;;;;4995788;28;20490;-87
2021/12/06 11:52:22;;;;;;;43.40;18.17;;;3.10;99.90;;;;;;4989820;28;20045;-87
2021/12/06 11:55:05;;;;;;;49.95;17.60;;;3.10;99.90;;;;;;4977219;28;20033;-87
2021/12/06 11:57:41;;;;;;;54.20;19.08;;;3.10;99.90;;;;;;4989410;28;20132;-87
2021/12/06 12:00:16;;;;;;;50.40;18.73;;;3.10;99.90;;;;;;4974702;28;20430;-87
2021/12/06 12:02:55;;;;;;;51.92;20.38;;;3.10;99.90;;;;;;4994767;28;20049;-87
2021/12/06 12:05:36;;;;;;;56.25;20.42;;;3.10;99.90;;;;;;4984179;28;20083;-87
2021/12/06 12:08:15;;;;;;;45.35;17.95;;;3.20;99.90;;;;;;4978296;28;20084;-87
2021/12/06 12:10:51;;;;;;;49.10;18.70;;;3.20;99.90;;;;;;4985271;28;20043;-87
2021/12/06 12:13:24;;;;;;;50.63;18.50;;;3.30;99.90;;;;;;4990066;28;20108;-87
2021/12/06 12:15:55;;;;;;;49.88;19.58;;;3.30;99.90;;;;;;4973307;28;20045;-87
2021/12/06 12:18:22;;;;;;;43.30;17.30;;;3.30;99.90;;;;;;4980888;28;20519;-87
2021/12/06 12:20:48;;;;;;;49.55;17.90;;;3.30;99.90;;;;;;4982161;28;20129;-87
2021/12/06 12:23:15;;;;;;;53.70;19.98;;;3.30;99.90;;;;;;4973972;28;20411;-87
2021/12/06 12:25:49;;;;;;;49.95;18.50;;;3.30;99.90;;;;;;4981082;28;20046;-87
2021/12/06 12:28:22;;;;;;;48.63;18.08;;;3.40;99.90;;;;;;4978313;28;20469;-87
2021/12/06 12:30:51;;;;;;;45.92;17.55;;;3.40;99.90;;;;;;4980038;28;20038;-87
2021/12/06 12:33:19;;;;;;;46.40;17.35;;;3.50;99.90;;;;;;4980749;28;20084;-85
2021/12/06 12:35:47;;;;;;;51.45;18.70;;;3.50;99.90;;;;;;4980608;28;20096;-87
2021/12/06 12:38:20;;;;;;;52.10;19.58;;;3.50;99.90;;;;;;4976884;28;20148;-87
2021/12/06 12:40:53;;;;;;;48.13;19.17;;;3.50;99.90;;;;;;4977540;28;20077;-87
2021/12/06 12:43:25;;;;;;;42.95;18.02;;;3.40;99.90;;;;;;4978180;28;20513;-87
2021/12/06 12:45:56;;;;;;;47.75;18.45;;;3.40;99.90;;;;;;4989517;28;20045;-87
2021/12/06 12:48:26;;;;;;;50.85;17.77;;;3.40;99.90;;;;;;4988515;28;20148;-87
2021/12/06 12:51:06;;;;;;;48.15;18.65;;;3.40;99.90;;;;;;4977784;28;20041;-87
2021/12/06 12:54:06;;;;;;;41.47;15.80;;;3.40;99.90;;;;;;4975193;28;20038;-87
2021/12/06 12:56:37;;;;;;;48.25;19.85;;;3.40;99.90;;;;;;4962692;28;20066;-87
2021/12/06 12:59:32;;;;;;;52.63;20.98;;;3.30;99.90;;;;;;4979107;28;20083;-87